AWOS
ADDS - METARS form results

Aviation Digital Data Service (ADDS)

Output produced by METARs form (1932 UTC 22 October 2021)
found at http://aviationweather.gov/metar/data/
 
METAR text: KVYS 221915Z AUTO 29004KT 10SM SCT042 13/03 A3002 RMK AO2 T01280030
Conditions at: KVYS (PERU , IL, US) observed 1915 UTC 22 October 2021
Temperature: 12.8°C (55°F)
Dewpoint: 3.0°C (37°F) [RH = 51%]
Pressure (altimeter): 30.02 inches Hg (1016.7 mb)
Winds: from the WNW (290 degrees) at 5 MPH (4 knots; 2.1 m/s)
Visibility: 10 or more miles (16+ km)
Ceiling: at least 12,000 feet AGL
Clouds: scattered clouds at 4200 feet AGL
Weather: automated observation with no human augmentation;
there may or may not be significant weather present at this time

METAR text: KVYS 221855Z AUTO 28006KT 10SM BKN040 BKN120 12/04 A3003 RMK AO2 T01210044
Conditions at: KVYS (PERU , IL, US) observed 1855 UTC 22 October 2021
Temperature: 12.1°C (54°F)
Dewpoint: 4.4°C (40°F) [RH = 59%]
Pressure (altimeter): 30.03 inches Hg (1017.0 mb)
Winds: from the W (280 degrees) at 7 MPH (6 knots; 3.1 m/s)
Visibility: 10 or more miles (16+ km)
Ceiling: 4000 feet AGL
Clouds: broken clouds at 4000 feet AGL
broken clouds at 12000 feet AGL
Weather: automated observation with no human augmentation;
there may or may not be significant weather present at this time

METAR text: KVYS 221835Z AUTO 30006KT 10SM SCT033 SCT039 SCT045 13/04 A3004 RMK AO2 T01250044
Conditions at: KVYS (PERU , IL, US) observed 1835 UTC 22 October 2021
Temperature: 12.5°C (54°F)
Dewpoint: 4.4°C (40°F) [RH = 58%]
Pressure (altimeter): 30.04 inches Hg (1017.4 mb)
Winds: from the WNW (300 degrees) at 7 MPH (6 knots; 3.1 m/s)
Visibility: 10 or more miles (16+ km)
Ceiling: at least 12,000 feet AGL
Clouds: scattered clouds at 3300 feet AGL
scattered clouds at 3900 feet AGL
scattered clouds at 4500 feet AGL
Weather: automated observation with no human augmentation;
there may or may not be significant weather present at this time